METAR Reports

Area Airport Weather Conditions

KBDL - Windsor Locks, Connecticut, USA
Distance from station: NE 45mi, 72km
Updated: 4:51AM EST, November 17, 2019
Few Clouds
Few Clouds
 Wind from N
Wind: N 6 mph , 9 km/h
Temperature: 19°F , -7°C
Wind Chill: 11°F , -12°C
Dew Point: 3°F , -16°C
Humidity: 49%
Barometer: 30.45 inHg , 1031.2 hPa
Clouds: Few Clouds
Visibility: 10 miles , 16 km
Cloud details: Few Clouds 25000 ft
2019/11/17 09:51 KBDL 170951Z 36005KT 10SM FEW250 M07/M16 A3045 RMK AO2 SLP315 T10671156
KDXR - Danbury, Connecticut, USA
Distance from station: SSW 15mi, 24km
Updated: 4:53AM EST, November 17, 2019
Overcast
Overcast
 Wind from ENE
Wind: ENE 6 mph , 9 km/h
Temperature: 25°F , -4°C
Wind Chill: 18°F , -8°C
Dew Point: 5°F , -15°C
Humidity: 42%
Barometer: 30.41 inHg , 1029.8 hPa
Clouds: Overcast
Visibility: 10 miles , 16 km
Cloud details: Overcast 3400 ft
2019/11/17 09:53 KDXR 170953Z AUTO 06005KT 10SM OVC034 M04/M15 A3041 RMK AO2 SLP304 T10391150
 
KOXC - Oxford/Waterbury, Connecticut, USA
Distance from station: ESE 16mi, 26km
Updated: 4:51AM EST, November 17, 2019
Overcast
Overcast
 Wind from NNE
Wind: NNE 14 mph , 22 km/h
Temperature: 25°F , -4°C
Wind Chill: 13°F , -11°C
Dew Point: 7°F , -14°C
Humidity: 46%
Barometer: 30.39 inHg , 1029.1 hPa
Clouds: Overcast
Visibility: 10 miles , 16 km
Cloud details: Overcast 3200 ft
2019/11/17 09:51 KOXC 170951Z AUTO 03012KT 10SM OVC032 M04/M14 A3039 RMK AO2 SLP311 T10441139 FZRANO
KPOU - Poughkeepsie, New York, USA
Distance from station: W 25mi, 40km
Updated: 4:53AM EST, November 17, 2019
Overcast
Overcast
 Wind from NNE
Wind: NNE 6 mph , 9 km/h
Temperature: 19°F , -7°C
Wind Chill: 11°F , -12°C
Dew Point: 7°F , -14°C
Humidity: 58%
Barometer: 30.45 inHg , 1031.2 hPa
Clouds: Overcast
Visibility: 10 miles , 16 km
Cloud details: Overcast 3800 ft
2019/11/17 09:53 KPOU 170953Z AUTO 02005KT 10SM OVC038 M07/M14 A3045 RMK AO2 SLP310 T10721144
 
KMMK - Meriden, Connecticut, USA
Distance from station: E 30mi, 48km
Updated: 4:53AM EST, November 17, 2019
Clear
Clear
 Wind from NNE
Wind: NNE 10 mph , 17 km/h
Temperature: 23°F , -5°C
Wind Chill: 13°F , -11°C
Dew Point: 3°F , -16°C
Humidity: 42%
Barometer: 30.44 inHg , 1030.8 hPa
Clouds: Clear
Visibility: 10 miles , 16 km
2019/11/17 09:53 KMMK 170953Z AUTO 02009KT 10SM CLR M05/M16 A3044 RMK AO2 SLP310 T10501161 $
KBDR - Bridgeport, Connecticut, USA
Distance from station: SSE 32mi, 51km
Updated: 4:52AM EST, November 17, 2019
Overcast
Overcast
 Wind from NNE
Wind: NNE 14 mph , 22 km/h
Temperature: 30°F , -1°C
Wind Chill: 19°F , -7°C
Dew Point: 10°F , -12°C
Humidity: 43%
Barometer: 30.40 inHg , 1029.5 hPa
Clouds: Overcast
Visibility: 10 miles , 16 km
Cloud details: Overcast 3800 ft
2019/11/17 09:52 KBDR 170952Z AUTO 03012KT 10SM OVC038 M01/M12 A3040 RMK AO2 SLP295 T10111117 $
 
KHVN - New Haven/Tweed, Connecticut, USA
Distance from station: SE 35mi, 57km
Updated: 4:53AM EST, November 17, 2019
Overcast
Overcast
 Wind from N
Wind: N 15 mph , 24 km/h
Temperature: 28°F , -2°C
Wind Chill: 16°F , -9°C
Dew Point: 7°F , -14°C
Humidity: 40%
Barometer: 30.40 inHg , 1029.5 hPa
Clouds: Overcast
Visibility: 10 miles , 16 km
Cloud details: Overcast 3900 ft
2019/11/17 09:53 KHVN 170953Z AUTO 01013KT 10SM OVC039 M02/M14 A3040 RMK AO2 SLP295 T10221144
KSWF - Newburgh/Stewart, New York, USA
Distance from station: W 35mi, 57km
Updated: 4:45AM EST, November 17, 2019
Clear
Clear
 Wind from ENE
Wind: ENE 8 mph , 13 km/h
Temperature: 19°F , -7°C
Wind Chill: 9°F , -13°C
Dew Point: 9°F , -13°C
Humidity: 63%
Barometer: 30.42 inHg , 1030.1 hPa
Clouds: Clear
Visibility: 10 miles , 16 km
2019/11/17 09:45 KSWF 170945Z 07007KT 10SM SKC M07/M13 A3042
 
KHPN - White Plains, New York, USA
Distance from station: SSW 38mi, 62km
Updated: 4:56AM EST, November 17, 2019
Overcast
Overcast
 Wind from N
Wind: N 9 mph , 15 km/h
Temperature: 28°F , -2°C
Wind Chill: 19°F , -7°C
Dew Point: 7°F , -14°C
Humidity: 40%
Barometer: 30.37 inHg , 1028.4 hPa
Clouds: Overcast
Visibility: 10 miles , 16 km
Cloud details: Overcast 3100 ft
2019/11/17 09:56 KHPN 170956Z 36008KT 10SM OVC031 M02/M14 A3037 RMK AO2 SLP292 T10221139
KHFD - Hartford/Brainar, Connecticut, USA
Distance from station: ENE 41mi, 65km
Updated: 4:53AM EST, November 17, 2019
Clear
Clear
 Wind from N
Wind: N 7 mph , 11 km/h
Temperature: 21°F , -6°C
Wind Chill: 12°F , -11°C
Dew Point: 5°F , -15°C
Humidity: 49%
Barometer: 30.46 inHg , 1031.5 hPa
Clouds: Clear
Visibility: 10 miles , 16 km
2019/11/17 09:53 KHFD 170953Z AUTO 35006KT 10SM CLR M06/M15 A3046 RMK AO2 SLP314 T10561150